Atlantic Lily — VREF6 — position and weather

sailwx.info

Track history (hours):
 
Tides and Currents Weather Stations Pressure Air Temp Water Temp Dewpoint Dewpoint Depression Visibility Wind Speed Wind Dir Waves Ship Positions

Atlantic Lily

Last reported at 2018-Jul-17 14:28 UTC. Time now 2018-Jul-22 19:47 UTC.
Position N 39°53' E 026°03'.

Length 183 m; draft 7.8 m.

Type: Ship. MMSI: 477110700.

Date/timePositionNaut miles runAvg speedWind from/ knotsBaromVisibWave heightAir tempDewpointWater temp
2018-Jul-17 14:28N 39°53' E 026°03'0 0.0
2018-Jul-17 13:25N 39°53' E 026°03'0 0.0
2018-Jul-17 11:40N 39°53' E 026°03'0 0.0
2018-Jul-17 11:28N 39°53' E 026°03'0 0.0
2018-Jul-17 05:04N 39°53' E 026°02'0 0.0
2018-Jul-17 01:47N 39°53' E 026°02'1 3.5
2018-Jul-17 01:30N 39°53' E 026°01'5 9.6
2018-Jul-17 01:00N 39°52' E 025°55'711.2
2018-Jul-17 00:23N 39°45' E 025°55'16412.1
2018-Jul-16 10:52N 37°21' E 024°15'412.3
2018-Jul-16 10:31N 37°17' E 024°12'612.6
2018-Jul-16 10:00N 37°11' E 024°10'612.8
2018-Jul-16 09:30N 37°05' E 024°07'612.8
2018-Jul-16 09:00N 36°59' E 024°05'612.8
2018-Jul-16 08:30N 36°53' E 024°04'612.8
2018-Jul-16 08:00N 36°46' E 024°02'612.7
2018-Jul-16 07:30N 36°40' E 023°60'612.7
2018-Jul-16 07:00N 36°34' E 023°59'712.8
2018-Jul-16 06:30N 36°28' E 023°56'612.9
2018-Jul-16 06:00N 36°22' E 023°53'612.9
2018-Jul-16 05:30N 36°16' E 023°49'612.7
2018-Jul-16 05:00N 36°11' E 023°45'43710.4
2018-Jul-14 10:56N 35°53' E 014°46'0 0.1
2018-Jul-14 10:29N 35°53' E 014°46'0 0.1
2018-Jul-14 10:00N 35°53' E 014°46'2 3.6
2018-Jul-14 09:30N 35°54' E 014°44'612.4
2018-Jul-14 09:00N 35°60' E 014°42'612.5
2018-Jul-14 08:30N 36°06' E 014°39'4 8.6
2018-Jul-14 08:00N 36°09' E 014°35'612.7
2018-Jul-14 07:30N 36°13' E 014°30'612.2
2018-Jul-14 07:00N 36°16' E 014°23'612.7
2018-Jul-14 06:30N 36°17' E 014°15'612.8
2018-Jul-14 06:00N 36°18' E 014°08'612.7
2018-Jul-14 05:30N 36°19' E 013°60'612.9
2018-Jul-14 05:00N 36°19' E 013°52'713.3
2018-Jul-14 04:30N 36°20' E 013°44'713.5
2018-Jul-14 04:00N 36°21' E 013°35'713.8
2018-Jul-14 03:29N 36°22' E 013°26'713.8
2018-Jul-14 03:00N 36°22' E 013°18'713.8
2018-Jul-14 02:30N 36°23' E 013°10'713.3
2018-Jul-14 02:00N 36°27' E 013°03'713.3
2018-Jul-14 01:30N 36°31' E 012°57'713.2
2018-Jul-14 01:00N 36°35' E 012°50'613.0
2018-Jul-14 00:30N 36°40' E 012°44'713.0
2018-Jul-14 00:00N 36°43' E 012°38'612.9
2018-Jul-13 23:30N 36°46' E 012°30'713.0
2018-Jul-13 23:00N 36°50' E 012°24'613.0
2018-Jul-13 22:30N 36°54' E 012°17'18811.0
2018-Jul-13 05:28N 38°08' E 008°40'611.8
2018-Jul-13 04:59N 38°07' E 008°32'711.9
2018-Jul-13 04:25N 38°06' E 008°24'512.1
2018-Jul-13 04:00N 38°05' E 008°18'612.2
2018-Jul-13 03:30N 38°04' E 008°10'712.2
2018-Jul-13 02:57N 38°03' E 008°02'612.2
2018-Jul-13 02:29N 38°02' E 007°54'612.1
2018-Jul-13 02:00N 38°01' E 007°47'611.9
2018-Jul-13 01:29N 37°60' E 007°39'511.6
2018-Jul-13 01:00N 37°59' E 007°32'1211.4
2018-Jul-12 23:58N 37°57' E 007°18'1412.0
2018-Jul-12 22:51N 37°55' E 007°01'512.4
2018-Jul-12 22:28N 37°54' E 006°55'612.5
2018-Jul-12 21:59N 37°53' E 006°47'612.4
2018-Jul-12 21:30N 37°53' E 006°40'1712.2
2018-Jul-12 20:09N 37°50' E 006°19'211.9
2018-Jul-12 20:00N 37°50' E 006°17'1612.1
2018-Jul-12 18:40N 37°46' E 005°57'1112.1
2018-Jul-12 17:45N 37°45' E 005°43'1011.7
2018-Jul-12 16:53N 37°43' E 005°30'511.8
2018-Jul-12 16:27N 37°43' E 005°24'1111.8
2018-Jul-12 15:29N 37°41' E 005°10'912.1
2018-Jul-12 14:43N 37°39' E 004°58'312.2
2018-Jul-12 14:30N 37°38' E 004°55'2612.3
2018-Jul-12 12:24N 37°33' E 004°23'2512.5
2018-Jul-12 10:22N 37°29' E 003°51'512.3
2018-Jul-12 09:55N 37°28' E 003°45'7713.0
2018-Jul-12 03:59N 37°17' E 002°08'613.2
2018-Jul-12 03:30N 37°16' E 002°00'713.1
2018-Jul-12 02:59N 37°15' E 001°52'613.0
2018-Jul-12 02:30N 37°14' E 001°44'612.8
2018-Jul-12 02:00N 37°12' E 001°36'612.8
2018-Jul-12 01:30N 37°11' E 001°28'613.0
2018-Jul-12 01:00N 37°10' E 001°21'713.1
2018-Jul-12 00:30N 37°09' E 001°12'613.1
2018-Jul-12 00:00N 37°08' E 001°04'1013.0
2018-Jul-11 23:15N 37°06' E 000°52'313.0
2018-Jul-11 22:59N 37°05' E 000°48'612.9
2018-Jul-11 22:29N 37°04' E 000°40'1312.9
2018-Jul-11 21:27N 36°54' E 000°29'612.8
2018-Jul-11 21:00N 36°50' E 000°25'713.0
2018-Jul-11 20:30N 36°44' E 000°20'713.6
2018-Jul-11 20:00N 36°39' E 000°16'714.0
2018-Jul-11 19:31N 36°33' E 000°10'813.8
2018-Jul-11 18:54N 36°27' E 000°04'513.6
2018-Jul-11 18:30N 36°22' W 000°00'713.7
2018-Jul-11 18:00N 36°16' W 000°05'713.7
2018-Jul-11 17:29N 36°10' W 000°08'713.6
2018-Jul-11 17:00N 36°04' W 000°10'613.0
2018-Jul-11 16:30N 35°57' W 000°11'612.4
2018-Jul-11 16:00N 35°52' W 000°15'  
2018-Jul-07 21:32N 36°09' W 000°18'0 2.3
2018-Jul-07 21:27N 36°09' W 000°18'0 0.9
2018-Jul-07 20:59N 36°09' W 000°18'  
Track history (hours):
 
Tides and Currents Weather Stations Pressure Air Temp Water Temp Dewpoint Dewpoint Depression Visibility Wind Speed Wind Dir Waves Ship Positions

Atlantic Lily

Last reported at 2018-Jul-17 14:28 UTC. Time now 2018-Jul-22 19:47 UTC.
Position N 39°53' E 026°03'.

Length 183 m; draft 7.8 m.

Type: Ship. MMSI: 477110700.

Date/timePositionNaut miles runAvg speedWind from/ knotsBaromVisibWave heightAir tempDewpointWater temp
2018-Jul-17 14:28N 39°53' E 026°03'0 0.0
2018-Jul-17 13:25N 39°53' E 026°03'0 0.0
2018-Jul-17 11:40N 39°53' E 026°03'0 0.0
2018-Jul-17 11:28N 39°53' E 026°03'0 0.0
2018-Jul-17 05:04N 39°53' E 026°02'0 0.0
2018-Jul-17 01:47N 39°53' E 026°02'1 3.5
2018-Jul-17 01:30N 39°53' E 026°01'5 9.6
2018-Jul-17 01:00N 39°52' E 025°55'711.2
2018-Jul-17 00:23N 39°45' E 025°55'16412.1
2018-Jul-16 10:52N 37°21' E 024°15'412.3
2018-Jul-16 10:31N 37°17' E 024°12'612.6
2018-Jul-16 10:00N 37°11' E 024°10'612.8
2018-Jul-16 09:30N 37°05' E 024°07'612.8
2018-Jul-16 09:00N 36°59' E 024°05'612.8
2018-Jul-16 08:30N 36°53' E 024°04'612.8
2018-Jul-16 08:00N 36°46' E 024°02'612.7
2018-Jul-16 07:30N 36°40' E 023°60'612.7
2018-Jul-16 07:00N 36°34' E 023°59'712.8
2018-Jul-16 06:30N 36°28' E 023°56'612.9
2018-Jul-16 06:00N 36°22' E 023°53'612.9
2018-Jul-16 05:30N 36°16' E 023°49'612.7
2018-Jul-16 05:00N 36°11' E 023°45'43710.4
2018-Jul-14 10:56N 35°53' E 014°46'0 0.1
2018-Jul-14 10:29N 35°53' E 014°46'0 0.1
2018-Jul-14 10:00N 35°53' E 014°46'2 3.6
2018-Jul-14 09:30N 35°54' E 014°44'612.4
2018-Jul-14 09:00N 35°60' E 014°42'612.5
2018-Jul-14 08:30N 36°06' E 014°39'4 8.6
2018-Jul-14 08:00N 36°09' E 014°35'612.7
2018-Jul-14 07:30N 36°13' E 014°30'612.2
2018-Jul-14 07:00N 36°16' E 014°23'612.7
2018-Jul-14 06:30N 36°17' E 014°15'612.8
2018-Jul-14 06:00N 36°18' E 014°08'612.7
2018-Jul-14 05:30N 36°19' E 013°60'612.9
2018-Jul-14 05:00N 36°19' E 013°52'713.3
2018-Jul-14 04:30N 36°20' E 013°44'713.5
2018-Jul-14 04:00N 36°21' E 013°35'713.8
2018-Jul-14 03:29N 36°22' E 013°26'713.8
2018-Jul-14 03:00N 36°22' E 013°18'713.8
2018-Jul-14 02:30N 36°23' E 013°10'713.3
2018-Jul-14 02:00N 36°27' E 013°03'713.3
2018-Jul-14 01:30N 36°31' E 012°57'713.2
2018-Jul-14 01:00N 36°35' E 012°50'613.0
2018-Jul-14 00:30N 36°40' E 012°44'713.0
2018-Jul-14 00:00N 36°43' E 012°38'612.9
2018-Jul-13 23:30N 36°46' E 012°30'713.0
2018-Jul-13 23:00N 36°50' E 012°24'613.0
2018-Jul-13 22:30N 36°54' E 012°17'18811.0
2018-Jul-13 05:28N 38°08' E 008°40'611.8
2018-Jul-13 04:59N 38°07' E 008°32'711.9
2018-Jul-13 04:25N 38°06' E 008°24'512.1
2018-Jul-13 04:00N 38°05' E 008°18'612.2
2018-Jul-13 03:30N 38°04' E 008°10'712.2
2018-Jul-13 02:57N 38°03' E 008°02'612.2
2018-Jul-13 02:29N 38°02' E 007°54'612.1
2018-Jul-13 02:00N 38°01' E 007°47'611.9
2018-Jul-13 01:29N 37°60' E 007°39'511.6
2018-Jul-13 01:00N 37°59' E 007°32'1211.4
2018-Jul-12 23:58N 37°57' E 007°18'1412.0
2018-Jul-12 22:51N 37°55' E 007°01'512.4
2018-Jul-12 22:28N 37°54' E 006°55'612.5
2018-Jul-12 21:59N 37°53' E 006°47'612.4
2018-Jul-12 21:30N 37°53' E 006°40'1712.2
2018-Jul-12 20:09N 37°50' E 006°19'211.9
2018-Jul-12 20:00N 37°50' E 006°17'1612.1
2018-Jul-12 18:40N 37°46' E 005°57'1112.1
2018-Jul-12 17:45N 37°45' E 005°43'1011.7
2018-Jul-12 16:53N 37°43' E 005°30'511.8
2018-Jul-12 16:27N 37°43' E 005°24'1111.8
2018-Jul-12 15:29N 37°41' E 005°10'912.1
2018-Jul-12 14:43N 37°39' E 004°58'312.2
2018-Jul-12 14:30N 37°38' E 004°55'2612.3
2018-Jul-12 12:24N 37°33' E 004°23'2512.5
2018-Jul-12 10:22N 37°29' E 003°51'512.3
2018-Jul-12 09:55N 37°28' E 003°45'7713.0
2018-Jul-12 03:59N 37°17' E 002°08'613.2
2018-Jul-12 03:30N 37°16' E 002°00'713.1
2018-Jul-12 02:59N 37°15' E 001°52'613.0
2018-Jul-12 02:30N 37°14' E 001°44'612.8
2018-Jul-12 02:00N 37°12' E 001°36'612.8
2018-Jul-12 01:30N 37°11' E 001°28'613.0
2018-Jul-12 01:00N 37°10' E 001°21'713.1
2018-Jul-12 00:30N 37°09' E 001°12'613.1
2018-Jul-12 00:00N 37°08' E 001°04'1013.0
2018-Jul-11 23:15N 37°06' E 000°52'313.0
2018-Jul-11 22:59N 37°05' E 000°48'612.9
2018-Jul-11 22:29N 37°04' E 000°40'1312.9
2018-Jul-11 21:27N 36°54' E 000°29'612.8
2018-Jul-11 21:00N 36°50' E 000°25'713.0
2018-Jul-11 20:30N 36°44' E 000°20'713.6
2018-Jul-11 20:00N 36°39' E 000°16'714.0
2018-Jul-11 19:31N 36°33' E 000°10'813.8
2018-Jul-11 18:54N 36°27' E 000°04'513.6
2018-Jul-11 18:30N 36°22' W 000°00'713.7
2018-Jul-11 18:00N 36°16' W 000°05'713.7
2018-Jul-11 17:29N 36°10' W 000°08'713.6
2018-Jul-11 17:00N 36°04' W 000°10'613.0
2018-Jul-11 16:30N 35°57' W 000°11'612.4
2018-Jul-11 16:00N 35°52' W 000°15'  
2018-Jul-07 21:32N 36°09' W 000°18'0 2.3
2018-Jul-07 21:27N 36°09' W 000°18'0 0.9
2018-Jul-07 20:59N 36°09' W 000°18'  

Dump ship's entire track history